^^
Datos históricos de la estación: Murcia-Puente Tocinos
Diario Informe para Junio 19, 2019 Unidades:  Ingés    Métrico   Ambas
Diario Semanal Mensual Anual
  Máxima: Mínima: Promedio:
Temperatura: 90.9 °F 75.4 °F 82.8 °F
Punto de rocio: 74.8 °F 59.5 °F 68.2 °F
Humedad: 88% 40.4% 63%
Velocidad viento: 13mph 0mph 6.2mph
Racha viento: 25mph - -
Viento- - ESE
Presión: 29.9 in 29.8 in -
Precipitación: 0 in    
 
 
Tabla de datos para Junio 19, 2019
Hora Temperatura Punto de rocio Presión Viento Velocidad viento Racha viento Humedad Intensidad lluvia(por hora) Nubes
00:04 80.2 °F 72.7 °F 29.8 in NE 5.9 mph 9 mph 77.8% 0 in
00:09 80.2 °F 73 °F 29.8 in NE 5.7 mph 7 mph 78.7% 0 in
00:14 80.2 °F 73.2 °F 29.8 in NNE 4.7 mph 8.1 mph 79.4% 0 in
00:19 80.1 °F 73.4 °F 29.9 in NE 4.3 mph 8 mph 80% 0 in
00:24 80.1 °F 73.6 °F 29.9 in North 3.1 mph 6 mph 80.6% 0 in
00:29 80.1 °F 73.8 °F 29.9 in NE 3.2 mph 8.1 mph 81% 0 in
00:34 79.9 °F 73.9 °F 29.9 in NNE 3.6 mph 8.1 mph 81.9% 0 in
00:39 79.9 °F 73.9 °F 29.9 in NE 3.6 mph 7 mph 82.1% 0 in
00:44 79.7 °F 74.1 °F 29.9 in NE 3.6 mph 6.2 mph 83% 0 in
00:49 79.5 °F 74.1 °F 29.9 in NE 3.7 mph 6.9 mph 83.6% 0 in
00:54 79.3 °F 74.3 °F 29.9 in NE 4 mph 7 mph 84.5% 0 in
00:59 79.2 °F 74.3 °F 29.9 in NE 4 mph 6.9 mph 85% 0 in
01:04 79.2 °F 74.5 °F 29.9 in NE 4 mph 7 mph 86% 0 in
01:09 79 °F 74.5 °F 29.9 in NE 3.9 mph 7 mph 86.3% 0 in
01:14 79 °F 74.8 °F 29.9 in NE 3.6 mph 5.9 mph 87% 0 in
01:19 78.8 °F 74.5 °F 29.9 in NE 3.6 mph 6 mph 87% 0 in
01:24 78.6 °F 74.5 °F 29.9 in NNE 3.6 mph 6 mph 87.2% 0 in
01:29 78.6 °F 74.8 °F 29.9 in NNO 3.4 mph 5.2 mph 88% 0 in
01:34 78.6 °F 74.8 °F 29.9 in NO 2.4 mph 5 mph 88% 0 in
01:39 78.6 °F 74.8 °F 29.9 in NNO 2.5 mph 5.8 mph 88% 0 in
01:44 78.6 °F 74.8 °F 29.9 in NO 3.1 mph 6 mph 88% 0 in
01:49 78.4 °F 74.7 °F 29.9 in NO 2.9 mph 5 mph 87.9% 0 in
01:54 78.4 °F 74.1 °F 29.9 in NO 2.4 mph 5 mph 87% 0 in
01:59 78.4 °F 74.3 °F 29.9 in Este 2.1 mph 4.6 mph 87% 0 in
02:04 78.6 °F 74.5 °F 29.9 in ESE 1.4 mph 5 mph 87% 0 in
02:09 78.6 °F 74.5 °F 29.9 in ESE 1.8 mph 5 mph 87% 0 in
02:14 78.6 °F 74.5 °F 29.9 in SE 3.1 mph 5 mph 87% 0 in
02:19 78.6 °F 74.5 °F 29.9 in SE 2.9 mph 5 mph 87% 0 in
02:24 78.6 °F 74.5 °F 29.9 in SE 2 mph 5 mph 87% 0 in
02:29 78.6 °F 74.5 °F 29.9 in SE 2.1 mph 5 mph 87% 0 in
02:34 78.6 °F 74.3 °F 29.9 in Sur 2.4 mph 5 mph 87% 0 in
02:39 78.6 °F 74.5 °F 29.9 in OSO 2.3 mph 4 mph 87% 0 in
02:44 78.6 °F 74.5 °F 29.9 in SO 2 mph 4 mph 87% 0 in
02:49 78.6 °F 74.5 °F 29.9 in Sur 1.5 mph 2.3 mph 87% 0 in
02:54 78.6 °F 74.5 °F 29.8 in Calm     87% 0 in
02:59 78.4 °F 74.3 °F 29.8 in Calm     87% 0 in
03:04 78.4 °F 74.1 °F 29.8 in Calm     87% 0 in
03:09 78.4 °F 74.1 °F 29.8 in Calm   1.8 mph 86.9% 0 in
03:14 78.4 °F 73.9 °F 29.8 in Calm   2.3 mph 86% 0 in
03:19 78.4 °F 73.9 °F 29.8 in Calm   2.9 mph 86% 0 in
03:24 78.6 °F 74.1 °F 29.8 in Calm   3.5 mph 86% 0 in
03:29 78.6 °F 74.1 °F 29.8 in OSO 0.4 mph 3.1 mph 86% 0 in
03:34 78.6 °F 73.9 °F 29.8 in ONO 2 mph 3.5 mph 85.5% 0 in
03:39 78.4 °F 73.8 °F 29.8 in ONO 1.9 mph 3.5 mph 85.3% 0 in
03:44 78.4 °F 73.2 °F 29.8 in SSO 1.4 mph 3.6 mph 84.1% 0 in
03:49 77.9 °F 71.4 °F 29.8 in Sur 1.5 mph 4.6 mph 80.3% 0 in
03:54 77.5 °F 69.8 °F 29.8 in Sur 1.8 mph 5 mph 76.8% 0 in
03:59 77.5 °F 68.5 °F 29.8 in SSO 2 mph 5.2 mph 74% 0 in
04:04 77.7 °F 68.4 °F 29.8 in SO 2.4 mph 5 mph 73% 0 in
04:09 77.9 °F 67.8 °F 29.8 in SO 2.5 mph 5.2 mph 71.3% 0 in
04:14 78.1 °F 67.5 °F 29.8 in SO 2.9 mph 5.8 mph 69.7% 0 in
04:19 78.3 °F 66.9 °F 29.8 in SO 2.9 mph 6 mph 68.2% 0 in
04:24 78.3 °F 66.2 °F 29.8 in Sur 2.9 mph 6 mph 66.7% 0 in
04:29 78.3 °F 65.5 °F 29.8 in Sur 2.9 mph 5.4 mph 65.1% 0 in
04:34 78.4 °F 65.3 °F 29.8 in SSO 2.9 mph 5 mph 64.3% 0 in
04:39 78.4 °F 64.9 °F 29.8 in SSE 2.9 mph 5 mph 63.4% 0 in
04:44 78.4 °F 64.8 °F 29.8 in SSE 2.9 mph 5.2 mph 63% 0 in
04:49 78.3 °F 64.6 °F 29.8 in SSE 2.9 mph 5.2 mph 63% 0 in
04:54 78.3 °F 64.6 °F 29.8 in SSE 3.1 mph 5.2 mph 63% 0 in
04:59 78.1 °F 64.9 °F 29.8 in Sur 3.1 mph 5 mph 63.9% 0 in
05:04 77.9 °F 64.8 °F 29.8 in SSO 3.1 mph 5.2 mph 64% 0 in
05:09 77.9 °F 64.6 °F 29.8 in SO 3 mph 5 mph 64% 0 in
05:14 77.7 °F 64.6 °F 29.8 in OSO 2.9 mph 5 mph 64% 0 in
05:19 77.7 °F 64.6 °F 29.8 in OSO 2.9 mph 5 mph 64% 0 in
05:24 77.5 °F 64.8 °F 29.8 in OSO 2.9 mph 5 mph 64.8% 0 in
05:29 77.5 °F 64.8 °F 29.8 in OSO 2.8 mph 5 mph 65% 0 in
05:34 77.5 °F 64.8 °F 29.8 in SO 2.4 mph 4.7 mph 65% 0 in
05:39 77.5 °F 64.9 °F 29.8 in OSO 2.5 mph 5 mph 65.5% 0 in
05:44 77.4 °F 64.9 °F 29.8 in OSO 2.9 mph 5 mph 65.8% 0 in
05:49 77.4 °F 64.8 °F 29.8 in OSO 2.7 mph 3.6 mph 65% 0 in
05:54 77.4 °F 64.6 °F 29.8 in OSO 2 mph 4 mph 65% 0 in
05:59 77.2 °F 64.6 °F 29.8 in OSO 1.9 mph 4.6 mph 65% 0 in
06:04 77.2 °F 64.6 °F 29.8 in OSO 1.8 mph 5 mph 65.2% 0 in
06:09 76.8 °F 64.6 °F 29.8 in OSO 1.9 mph 4 mph 66% 0 in
06:14 76.6 °F 64.6 °F 29.8 in OSO 2 mph 4 mph 66% 0 in
06:19 76.6 °F 64.8 °F 29.8 in Sur 2 mph 4.7 mph 66.6% 0 in
06:24 76.5 °F 64.8 °F 29.8 in SE 2 mph 5.8 mph 67.5% 0 in
06:29 75.9 °F 64.8 °F 29.8 in SSE 2.2 mph 6 mph 68% 0 in
06:34 75.7 °F 64.4 °F 29.8 in SSE 3.1 mph 5 mph 68% 0 in
06:39 75.7 °F 64.4 °F 29.8 in Sur 3.1 mph 5 mph 68% 0 in
06:44 75.7 °F 64.4 °F 29.8 in Sur 3.1 mph 6.2 mph 68% 0 in
06:49 75.7 °F 64.2 °F 29.8 in Sur 3.3 mph 6.9 mph 67.3% 0 in
06:54 75.9 °F 64.4 °F 29.8 in SSE 4 mph 7 mph 67.4% 0 in
06:59 75.9 °F 64.4 °F 29.8 in SSE 4.1 mph 7 mph 67.4% 0 in
07:04 75.7 °F 64.4 °F 29.8 in Sur 4.3 mph 7 mph 68.2% 0 in
07:09 75.6 °F 64.6 °F 29.8 in Sur 4.4 mph 7 mph 69% 0 in
07:14 75.4 °F 64.6 °F 29.8 in SSO 4.7 mph 6 mph 69% 0 in
07:19 75.4 °F 64.6 °F 29.8 in SO 4.3 mph 6 mph 69% 0 in
07:24 75.6 °F 64.4 °F 29.8 in Oeste 3.1 mph 5 mph 68.5% 0 in
07:29 75.6 °F 63.9 °F 29.8 in OSO 2.9 mph 5 mph 67.2% 0 in
07:34 75.6 °F 63.9 °F 29.8 in SO 2.4 mph 5.8 mph 67% 0 in
07:39 75.7 °F 63.7 °F 29.8 in SO 2.5 mph 6 mph 66.1% 0 in
07:44 75.9 °F 63.7 °F 29.8 in SSO 3.1 mph 5 mph 66% 0 in
07:49 76.1 °F 63.9 °F 29.8 in SSO 3 mph 5 mph 66% 0 in
07:54 76.3 °F 64.4 °F 29.8 in SSO 2.9 mph 5 mph 66.4% 0 in
07:59 76.5 °F 64.8 °F 29.8 in SSO 2.7 mph 5.4 mph 67% 0 in
08:04 76.5 °F 64.2 °F 29.8 in OSO 2.4 mph 6 mph 66% 0 in
08:09 76.6 °F 64 °F 29.8 in OSO 2.5 mph 6 mph 65.1% 0 in
08:14 76.6 °F 63.9 °F 29.8 in OSO 3.1 mph 5 mph 64.7% 0 in
08:19 76.8 °F 63.7 °F 29.8 in SO 3 mph 5.8 mph 64% 0 in
08:24 77.2 °F 63.5 °F 29.8 in OSO 2.9 mph 6 mph 63.1% 0 in
08:29 77.4 °F 63.3 °F 29.8 in OSO 3 mph 6.2 mph 62.2% 0 in
08:34 77.4 °F 63 °F 29.9 in OSO 3.6 mph 6.2 mph 61.1% 0 in
08:39 77.5 °F 63 °F 29.9 in SO 3.5 mph 6 mph 61% 0 in
08:44 77.7 °F 63.1 °F 29.9 in Sur 3.1 mph 5.8 mph 60.6% 0 in
08:49 78.1 °F 62.8 °F 29.9 in SSO 3.1 mph 6.2 mph 59.4% 0 in
08:54 78.3 °F 63.1 °F 29.9 in Sur 3.1 mph 6 mph 60.1% 0 in
08:59 78.4 °F 63.7 °F 29.9 in SSE 3 mph 6.2 mph 60.6% 0 in
09:04 78.3 °F 62.8 °F 29.9 in Sur 2.9 mph 6.9 mph 58.7% 0 in
09:09 78.3 °F 62.4 °F 29.9 in SSO 3.3 mph 7.6 mph 58% 0 in
09:14 78.4 °F 61.7 °F 29.9 in SSO 4.7 mph 8.1 mph 56.6% 0 in
09:19 78.6 °F 61.2 °F 29.9 in SO 4.7 mph 8 mph 54.9% 0 in
09:24 79.2 °F 61 °F 29.9 in SSO 4.7 mph 6.9 mph 53.8% 0 in
09:29 79.3 °F 60.6 °F 29.9 in SSO 4.6 mph 7 mph 52.9% 0 in
09:34 79.5 °F 60.4 °F 29.9 in SSO 4.3 mph 8.1 mph 52% 0 in
09:39 79.9 °F 60.6 °F 29.9 in SSO 4.5 mph 8 mph 52% 0 in
09:44 80.1 °F 60.8 °F 29.9 in SSO 5.2 mph 8.1 mph 52% 0 in
09:49 80.2 °F 61 °F 29.9 in SSO 5 mph 8.1 mph 51.8% 0 in
09:54 80.6 °F 60.8 °F 29.9 in SSO 4.3 mph 8.1 mph 51.2% 0 in
09:59 80.8 °F 60.8 °F 29.9 in SSO 4.5 mph 8.1 mph 50.7% 0 in
10:04 81.1 °F 60.6 °F 29.9 in SSO 5.2 mph 7 mph 49.9% 0 in
10:09 81.7 °F 60.6 °F 29.9 in SSO 5 mph 6.9 mph 49.1% 0 in
10:14 82 °F 61 °F 29.9 in SSO 4.3 mph 8.1 mph 49% 0 in
10:19 82.4 °F 61 °F 29.9 in SSO 4.5 mph 9.2 mph 48.5% 0 in
10:24 82.9 °F 60.8 °F 29.9 in SSO 5.2 mph 9 mph 47.4% 0 in
10:29 83.5 °F 60.1 °F 29.9 in OSO 4.8 mph 7 mph 45.3% 0 in
10:34 84 °F 59.7 °F 29.9 in OSO 3.6 mph 6 mph 44% 0 in
10:39 84.7 °F 59.5 °F 29.9 in Oeste 3.3 mph 6 mph 42.6% 0 in
10:44 85.5 °F 59.7 °F 29.9 in Sur 2.4 mph 5.4 mph 41.9% 0 in
10:49 86.4 °F 59.9 °F 29.9 in NE 2.4 mph 6.2 mph 41% 0 in
10:54 86.7 °F 59.7 °F 29.9 in ENE 2.4 mph 7.4 mph 40.4% 0 in
10:59 86.7 °F 59.9 °F 29.9 in NE 2.9 mph 8.1 mph 40.4% 0 in
11:04 86.5 °F 60.3 °F 29.9 in NE 4.3 mph 9.2 mph 41.4% 0 in
11:09 86.5 °F 60.6 °F 29.9 in NE 4.5 mph 9 mph 42% 0 in
11:14 86.5 °F 61.3 °F 29.9 in NNE 5.2 mph 10.4 mph 42.9% 0 in
11:19 86.5 °F 61.5 °F 29.9 in NE 5.4 mph 10 mph 43% 0 in
11:24 86.5 °F 62.2 °F 29.9 in NE 6.2 mph 12.7 mph 44.2% 0 in
11:29 86.5 °F 62.8 °F 29.9 in NE 6.2 mph 13 mph 45.2% 0 in
11:34 86.5 °F 61.5 °F 29.9 in NE 6.2 mph 13 mph 43.2% 0 in
11:39 86.5 °F 61 °F 29.9 in NE 6.7 mph 13.8 mph 42.3% 0 in
11:44 86.9 °F 61.5 °F 29.9 in NE 8.5 mph 14 mph 42.9% 0 in
11:49 87.4 °F 62.2 °F 29.9 in NE 8.3 mph 13 mph 43% 0 in
11:54 87.6 °F 63 °F 29.9 in NE 7.6 mph 15.2 mph 43.6% 0 in
11:59 88 °F 62.6 °F 29.9 in NE 7.8 mph 15 mph 42.9% 0 in
12:04 88.2 °F 63.1 °F 29.9 in NE 8.1 mph 15 mph 43.5% 0 in
12:09 88.2 °F 63.3 °F 29.9 in NE 8.4 mph 16.1 mph 43.8% 0 in
12:14 88.2 °F 63.9 °F 29.9 in NE 9.7 mph 16 mph 44.5% 0 in
12:19 88.3 °F 64.4 °F 29.9 in NE 9.4 mph 15.2 mph 45.1% 0 in
12:24 88.3 °F 62.8 °F 29.9 in NE 8.7 mph 15 mph 42.8% 0 in
12:29 88.5 °F 63.9 °F 29.9 in NE 8.7 mph 15 mph 43.9% 0 in
12:34 88.7 °F 64.8 °F 29.9 in ENE 8.7 mph 15 mph 45.2% 0 in
12:39 89.1 °F 66 °F 29.9 in NE 8.6 mph 15 mph 46.6% 0 in
12:44 89.2 °F 66.7 °F 29.9 in ENE 8.1 mph 16.1 mph 47.7% 0 in
12:49 89.2 °F 67.8 °F 29.9 in ENE 8.2 mph 16 mph 49.3% 0 in
12:54 89.4 °F 68.7 °F 29.9 in NE 8.5 mph 15 mph 50.5% 0 in
12:59 89.8 °F 68.9 °F 29.9 in ENE 8.4 mph 16.3 mph 50.4% 0 in
13:04 89.8 °F 69.1 °F 29.9 in NE 8.1 mph 17.3 mph 50.9% 0 in
13:09 89.6 °F 68.9 °F 29.9 in ENE 8.1 mph 17 mph 50.7% 0 in
13:14 90.1 °F 68.5 °F 29.9 in ENE 8.1 mph 15 mph 49.4% 0 in
13:19 90.3 °F 69.6 °F 29.9 in ENE 8.1 mph 14 mph 50.8% 0 in
13:24 90.5 °F 69.1 °F 29.9 in NE 8.1 mph 17.5 mph 49.5% 0 in
13:29 90.7 °F 68.9 °F 29.9 in NE 8.3 mph 18.5 mph 49.1% 0 in
13:34 90.1 °F 67.6 °F 29.9 in NE 8.7 mph 19 mph 47.9% 0 in
13:39 90 °F 66.9 °F 29.9 in NE 9.3 mph 19.7 mph 46.8% 0 in
13:44 90 °F 65.7 °F 29.9 in NE 11.4 mph 20 mph 44.6% 0 in
13:49 90.1 °F 66 °F 29.9 in NE 11.4 mph 18.4 mph 44.9% 0 in
13:54 90.1 °F 66.7 °F 29.9 in NE 11.2 mph 20.7 mph 46.1% 0 in
13:59 90.5 °F 67.5 °F 29.9 in ENE 10.9 mph 21 mph 46.8% 0 in
14:04 90.9 °F 66.9 °F 29.9 in NE 10.2 mph 17.3 mph 45.7% 0 in
14:09 90.5 °F 66.6 °F 29.9 in NE 10.1 mph 17.3 mph 45.4% 0 in
14:14 90.3 °F 66.4 °F 29.9 in NE 10 mph 17.5 mph 45.5% 0 in
14:19 90.1 °F 66.2 °F 29.9 in NE 10.3 mph 20.1 mph 45.4% 0 in
14:24 90.1 °F 65.8 °F 29.9 in NE 11.2 mph 21 mph 44.9% 0 in
14:29 90.1 °F 65.8 °F 29.9 in NE 11.7 mph 22.3 mph 45% 0 in
14:34 90.1 °F 66.7 °F 29.9 in NE 13 mph 22 mph 46.4% 0 in
14:39 90 °F 67.3 °F 29.9 in NE 13 mph 22 mph 47.3% 0 in
14:44 90 °F 67.3 °F 29.9 in NE 13 mph 21 mph 47.7% 0 in
14:49 90 °F 67.3 °F 29.9 in NE 12.6 mph 20 mph 47.4% 0 in
14:54 90.1 °F 66.9 °F 29.9 in ENE 11.4 mph 19.2 mph 46.6% 0 in
14:59 90.1 °F 66 °F 29.9 in NE 11.1 mph 19 mph 45% 0 in
15:04 90.5 °F 67.1 °F 29.9 in NE 10.2 mph 20.7 mph 46.4% 0 in
15:09 90.5 °F 68.2 °F 29.9 in NE 10.6 mph 21 mph 48% 0 in
15:14 90.1 °F 68.5 °F 29.9 in NE 11.8 mph 24.6 mph 49.1% 0 in
15:19 90 °F 68.2 °F 29.9 in NE 12.1 mph 25 mph 49% 0 in
15:24 90 °F 68.4 °F 29.9 in NE 13 mph 23 mph 49.1% 0 in
15:29 90 °F 68 °F 29.9 in NE 12.6 mph 22 mph 48.5% 0 in
15:34 90.1 °F 68.4 °F 29.9 in NE 11.2 mph 21.9 mph 49% 0 in
15:39 90 °F 68 °F 29.9 in NE 11.4 mph 22 mph 48.6% 0 in
15:44 90 °F 69.1 °F 29.9 in NE 11.8 mph 21.3 mph 50.7% 0 in
15:49 89.8 °F 69.4 °F 29.9 in NE 11.8 mph 21 mph 51.4% 0 in
15:54 89.8 °F 68.5 °F 29.9 in NE 11.8 mph 18.1 mph 49.7% 0 in
15:59 89.6 °F 68 °F 29.9 in NE 11.6 mph 18.4 mph 49.1% 0 in
16:04 89.6 °F 67.5 °F 29.9 in NE 11.2 mph 19 mph 48.4% 0 in
16:09 90 °F 68 °F 29.9 in ENE 10.9 mph 19 mph 48.7% 0 in
16:14 90.1 °F 68 °F 29.9 in ENE 10 mph 16.1 mph 48.5% 0 in
16:16 90.1 °F 67.6 °F 29.9 in NE 10 mph 16.3 mph 47.8% 0 in
16:39 90.3 °F 64.2 °F 29.9 in ENE 8.9 mph 15.9 mph 42.2% 0 in
16:44 90.1 °F 63.7 °F 29.9 in NE 8.1 mph 19.6 mph 41.6% 0 in
16:49 90 °F 63.5 °F 29.9 in NE 9.1 mph 20.7 mph 41.7% 0 in
16:54 90 °F 63.9 °F 29.9 in NE 12.3 mph 21.9 mph 42.3% 0 in
16:59 90 °F 63.5 °F 29.9 in NE 12.1 mph 22 mph 41.5% 0 in
17:04 90.1 °F 63.9 °F 29.9 in NE 11.4 mph 19 mph 41.8% 0 in
17:09 90.1 °F 63.9 °F 29.9 in NE 11.4 mph 18.5 mph 42% 0 in
17:14 90 °F 64.6 °F 29.9 in NE 11.4 mph 22.3 mph 42.9% 0 in
17:19 90.1 °F 65.3 °F 29.9 in NE 11.2 mph 22 mph 43.8% 0 in
17:24 90.1 °F 66 °F 29.9 in NE 10.2 mph 21 mph 45% 0 in
17:29 90 °F 66.2 °F 29.9 in ENE 10.1 mph 20.7 mph 45.9% 0 in
17:34 89.6 °F 66 °F 29.9 in ENE 10 mph 21 mph 45.7% 0 in
17:39 89.4 °F 65.8 °F 29.9 in NE 10.1 mph 20 mph 45.8% 0 in
17:44 89.2 °F 66.7 °F 29.9 in NE 10.7 mph 20 mph 47.7% 0 in
17:49 89.1 °F 67.3 °F 29.9 in NE 10.7 mph 19.7 mph 48.9% 0 in
17:54 89.1 °F 66.9 °F 29.9 in ENE 10.7 mph 20 mph 48.1% 0 in
17:59 89.1 °F 67.5 °F 29.9 in NE 10.3 mph 18.4 mph 49.2% 0 in
18:04 88.9 °F 68 °F 29.9 in NE 9.2 mph 19 mph 50.3% 0 in
18:09 88.5 °F 68.2 °F 29.9 in NE 9.6 mph 20.8 mph 51.1% 0 in
18:14 88.3 °F 68.5 °F 29.9 in ENE 11.2 mph 21 mph 52.2% 0 in
18:19 88.2 °F 68.9 °F 29.9 in NE 11.1 mph 20 mph 53% 0 in
18:24 87.8 °F 69.3 °F 29.9 in NE 10.7 mph 19 mph 54.4% 0 in
18:29 87.8 °F 68.7 °F 29.9 in NE 10.8 mph 20.7 mph 53.4% 0 in
18:34 87.8 °F 68.9 °F 29.9 in NE 11.4 mph 21 mph 53.7% 0 in
18:39 88 °F 69.4 °F 29.9 in NE 10.8 mph 16.3 mph 54.5% 0 in
18:44 87.8 °F 70.3 °F 29.9 in NE 8.5 mph 19 mph 56.4% 0 in
18:49 87.1 °F 70.9 °F 29.9 in NE 9.1 mph 19.7 mph 59% 0 in
18:54 86.9 °F 71.4 °F 29.9 in NE 11.4 mph 20 mph 60.3% 0 in
18:59 86.7 °F 71.6 °F 29.9 in NE 11.4 mph 21.3 mph 60.7% 0 in
19:04 86.4 °F 71.8 °F 29.9 in NE 11.4 mph 21.3 mph 62% 0 in
19:09 86.2 °F 71.6 °F 29.9 in NE 11.5 mph 21 mph 62% 0 in
19:14 85.8 °F 72.1 °F 29.9 in NE 11.8 mph 21 mph 63.6% 0 in
19:19 85.8 °F 72 °F 29.9 in NE 11.9 mph 21 mph 63.5% 0 in
19:24 85.5 °F 72.3 °F 29.9 in NE 12.3 mph 20 mph 64.8% 0 in
19:29 85.1 °F 72.3 °F 29.9 in NE 12.3 mph 20 mph 65.5% 0 in
19:34 84.9 °F 72.5 °F 29.9 in NE 12.3 mph 20 mph 66.3% 0 in
19:39 84.7 °F 72.5 °F 29.9 in NE 11.9 mph 18.4 mph 66.8% 0 in
19:44 84.6 °F 72.7 °F 29.9 in NE 10.7 mph 18.5 mph 67.8% 0 in
19:49 84.2 °F 72.5 °F 29.9 in NE 10.9 mph 19 mph 68% 0 in
19:54 84 °F 72.3 °F 29.9 in NE 11.4 mph 18.4 mph 68% 0 in
19:59 83.8 °F 72.7 °F 29.9 in NE 11.4 mph 20.7 mph 68.8% 0 in
20:04 83.7 °F 72.5 °F 29.9 in NE 11.2 mph 21 mph 69.2% 0 in
20:09 83.8 °F 72.7 °F 29.9 in NE 10.6 mph 15.9 mph 69.4% 0 in
20:14 83.7 °F 72.7 °F 29.9 in NE 8.5 mph 16.1 mph 69.9% 0 in
20:19 83.5 °F 73 °F 29.9 in ENE 8.5 mph 15 mph 70.8% 0 in
20:24 83.5 °F 72.9 °F 29.9 in NE 8.7 mph 14 mph 70.4% 0 in
20:29 83.3 °F 72.9 °F 29.9 in NE 8.3 mph 13 mph 71% 0 in
20:34 83.1 °F 72.7 °F 29.9 in ENE 6.9 mph 13 mph 71% 0 in
20:39 82.9 °F 72.9 °F 29.9 in ENE 6.8 mph 12.7 mph 71.6% 0 in
20:44 82.8 °F 72.7 °F 29.9 in ENE 6.4 mph 13 mph 72% 0 in
20:49 82.6 °F 72.7 °F 29.9 in NE 6.4 mph 13 mph 72% 0 in
20:54 82.2 °F 72.5 °F 29.9 in NE 6.4 mph 14 mph 72.4% 0 in
20:59 82 °F 72.5 °F 29.9 in NE 7 mph 16.1 mph 73% 0 in
21:04 82 °F 72.9 °F 29.9 in NE 8.5 mph 16 mph 73.7% 0 in
21:09 81.9 °F 72.5 °F 29.9 in NE 8.3 mph 13.8 mph 73.1% 0 in
21:14 81.9 °F 72.5 °F 29.9 in NE 7.4 mph 14 mph 73.3% 0 in
21:19 81.9 °F 72.9 °F 29.9 in NE 7.5 mph 14 mph 74% 0 in
21:24 81.7 °F 72.9 °F 29.9 in NE 7.6 mph 13 mph 74.4% 0 in
21:29 81.7 °F 72.9 °F 29.9 in NE 7.3 mph 11.2 mph 75% 0 in
21:34 81.3 °F 72.9 °F 29.9 in NE 6.2 mph 12 mph 75.4% 0 in
21:39 81.3 °F 73 °F 29.9 in NE 6.2 mph 11.5 mph 76% 0 in
21:44 81.1 °F 73 °F 29.9 in NE 6.4 mph 13 mph 76.1% 0 in
21:49 81.1 °F 72.9 °F 29.9 in NE 6.6 mph 13 mph 76.1% 0 in
21:54 81.1 °F 73 °F 29.9 in NE 7.4 mph 10.4 mph 76.2% 0 in
21:59 81.1 °F 72.9 °F 29.9 in NE 7.1 mph 12.7 mph 76% 0 in
22:04 81 °F 72.7 °F 29.9 in NE 6.2 mph 13 mph 76% 0 in
22:09 81.1 °F 72.9 °F 29.9 in NE 6.3 mph 12 mph 76% 0 in
22:14 81.1 °F 72.9 °F 29.9 in NE 6.9 mph 12.7 mph 76% 0 in
22:19 81.1 °F 72.9 °F 29.9 in NE 6.8 mph 13 mph 76% 0 in
22:24 81.1 °F 72.9 °F 29.9 in NE 6.4 mph 11 mph 76% 0 in
22:29 81.1 °F 72.9 °F 29.9 in NE 6.2 mph 9.2 mph 76% 0 in
22:34 81.1 °F 72.9 °F 29.9 in NE 5.4 mph 9.2 mph 76.1% 0 in
22:39 81 °F 73 °F 29.9 in NNE 5.3 mph 8.1 mph 77% 0 in
22:44 80.8 °F 73.2 °F 29.9 in NE 5.2 mph 8.5 mph 77.8% 0 in
22:49 80.8 °F 73.2 °F 29.9 in NE 5.1 mph 9 mph 78% 0 in
22:54 80.8 °F 73.4 °F 29.9 in NE 4.7 mph 7 mph 78.4% 0 in
22:59 80.8 °F 73.8 °F 29.9 in NE 4.4 mph 6 mph 79% 0 in
23:04 80.8 °F 73.8 °F 29.9 in NE 3.6 mph 6.2 mph 79% 0 in
23:09 80.6 °F 73.6 °F 29.9 in NNE 3.7 mph 6.2 mph 79% 0 in
23:14 80.4 °F 73.8 °F 29.9 in NNE 4 mph 6.9 mph 79.9% 0 in
23:19 80.4 °F 73.8 °F 29.9 in NNE 4.1 mph 8.1 mph 80% 0 in
23:24 80.4 °F 73.8 °F 29.9 in NNE 4.3 mph 8 mph 80% 0 in
23:29 80.4 °F 73.8 °F 29.9 in NNE 4.2 mph 7 mph 80% 0 in
23:34 80.4 °F 73.8 °F 29.9 in NNE 4 mph 6.9 mph 80% 0 in
23:39 80.4 °F 73.9 °F 29.9 in NE 4 mph 8.1 mph 80.6% 0 in
23:44 80.2 °F 73.9 °F 29.9 in NE 4 mph 8.1 mph 81% 0 in
23:49 80.2 °F 73.9 °F 29.9 in NE 4.2 mph 8.1 mph 81% 0 in
23:54 80.2 °F 73.9 °F 29.9 in NE 4.7 mph 8 mph 81% 0 in
23:59 80.1 °F 73.8 °F 29.9 in NE 4.5 mph 6.9 mph 81% 0 in
Murcia-Puente Tocinos, Espa?a
Compliments of Weather Underground - 3 mb

La estación de MeteoMurcia.com, publica sus datos en los siguientes proyectos:

Weather Underground PWS IMURCIAP2 Meteoclimatic www.awekas.at

Web Analytics

Clicky